sensor_id;sensor_type;location;lat;lon;timestamp;P1;durP1;ratioP1;P2;durP2;ratioP2
19207;SDS011;9737;59.466;18.036;2023-08-20T00:00:04;7.15;;;5.63;;
19207;SDS011;9737;59.466;18.036;2023-08-20T00:02:33;8.02;;;5.40;;
19207;SDS011;9737;59.466;18.036;2023-08-20T00:05:06;6.90;;;5.47;;
19207;SDS011;9737;59.466;18.036;2023-08-20T00:07:35;14.30;;;5.95;;
19207;SDS011;9737;59.466;18.036;2023-08-20T00:10:04;10.30;;;5.53;;
19207;SDS011;9737;59.466;18.036;2023-08-20T00:12:32;8.73;;;5.15;;
19207;SDS011;9737;59.466;18.036;2023-08-20T00:15:01;6.70;;;5.10;;
19207;SDS011;9737;59.466;18.036;2023-08-20T00:17:33;8.93;;;5.22;;
19207;SDS011;9737;59.466;18.036;2023-08-20T00:20:02;10.63;;;4.95;;
19207;SDS011;9737;59.466;18.036;2023-08-20T00:22:38;13.63;;;5.20;;
19207;SDS011;9737;59.466;18.036;2023-08-20T00:25:06;5.70;;;4.43;;
19207;SDS011;9737;59.466;18.036;2023-08-20T00:27:35;8.75;;;5.00;;
19207;SDS011;9737;59.466;18.036;2023-08-20T00:30:04;8.65;;;4.80;;
19207;SDS011;9737;59.466;18.036;2023-08-20T00:32:33;8.43;;;4.72;;
19207;SDS011;9737;59.466;18.036;2023-08-20T00:35:01;8.77;;;5.35;;
19207;SDS011;9737;59.466;18.036;2023-08-20T00:37:30;7.43;;;5.50;;
19207;SDS011;9737;59.466;18.036;2023-08-20T00:40:00;6.80;;;5.30;;
19207;SDS011;9737;59.466;18.036;2023-08-20T00:42:30;10.13;;;5.95;;
19207;SDS011;9737;59.466;18.036;2023-08-20T00:44:58;7.25;;;5.38;;
19207;SDS011;9737;59.466;18.036;2023-08-20T00:47:27;9.00;;;5.75;;
19207;SDS011;9737;59.466;18.036;2023-08-20T00:49:55;6.75;;;5.32;;
19207;SDS011;9737;59.466;18.036;2023-08-20T00:52:23;10.15;;;5.72;;
19207;SDS011;9737;59.466;18.036;2023-08-20T00:54:51;15.05;;;5.93;;
19207;SDS011;9737;59.466;18.036;2023-08-20T00:57:22;9.40;;;5.35;;
19207;SDS011;9737;59.466;18.036;2023-08-20T00:59:50;8.63;;;5.13;;
19207;SDS011;9737;59.466;18.036;2023-08-20T01:02:18;10.15;;;5.32;;
19207;SDS011;9737;59.466;18.036;2023-08-20T01:04:47;8.73;;;5.38;;
19207;SDS011;9737;59.466;18.036;2023-08-20T01:07:18;9.30;;;5.22;;
19207;SDS011;9737;59.466;18.036;2023-08-20T01:09:59;7.00;;;4.85;;
19207;SDS011;9737;59.466;18.036;2023-08-20T01:12:33;6.88;;;4.90;;
19207;SDS011;9737;59.466;18.036;2023-08-20T01:15:02;8.00;;;5.20;;
19207;SDS011;9737;59.466;18.036;2023-08-20T01:17:30;7.93;;;5.20;;
19207;SDS011;9737;59.466;18.036;2023-08-20T01:19:58;8.23;;;4.80;;
19207;SDS011;9737;59.466;18.036;2023-08-20T01:22:35;12.77;;;5.03;;
19207;SDS011;9737;59.466;18.036;2023-08-20T01:25:30;8.43;;;4.90;;
19207;SDS011;9737;59.466;18.036;2023-08-20T01:28:22;7.57;;;5.30;;
19207;SDS011;9737;59.466;18.036;2023-08-20T01:30:53;7.10;;;5.05;;
19207;SDS011;9737;59.466;18.036;2023-08-20T01:33:22;9.70;;;5.50;;
19207;SDS011;9737;59.466;18.036;2023-08-20T01:35:50;10.50;;;5.45;;
19207;SDS011;9737;59.466;18.036;2023-08-20T01:38:19;10.93;;;5.50;;
19207;SDS011;9737;59.466;18.036;2023-08-20T01:40:47;13.05;;;6.10;;
19207;SDS011;9737;59.466;18.036;2023-08-20T01:43:15;8.07;;;5.90;;
19207;SDS011;9737;59.466;18.036;2023-08-20T01:45:45;9.30;;;5.80;;
19207;SDS011;9737;59.466;18.036;2023-08-20T01:48:13;10.02;;;6.32;;
19207;SDS011;9737;59.466;18.036;2023-08-20T01:50:41;9.45;;;6.10;;
19207;SDS011;9737;59.466;18.036;2023-08-20T01:53:09;8.77;;;6.05;;
19207;SDS011;9737;59.466;18.036;2023-08-20T01:55:37;8.48;;;5.90;;
19207;SDS011;9737;59.466;18.036;2023-08-20T01:58:05;8.73;;;6.13;;
19207;SDS011;9737;59.466;18.036;2023-08-20T02:00:33;8.85;;;5.63;;
19207;SDS011;9737;59.466;18.036;2023-08-20T02:03:03;8.43;;;5.93;;
19207;SDS011;9737;59.466;18.036;2023-08-20T02:05:31;11.82;;;6.22;;
19207;SDS011;9737;59.466;18.036;2023-08-20T02:07:59;15.52;;;6.63;;
19207;SDS011;9737;59.466;18.036;2023-08-20T02:10:26;9.30;;;6.30;;
19207;SDS011;9737;59.466;18.036;2023-08-20T02:12:54;11.50;;;6.13;;
19207;SDS011;9737;59.466;18.036;2023-08-20T02:15:22;12.68;;;6.63;;
19207;SDS011;9737;59.466;18.036;2023-08-20T02:17:50;10.88;;;7.28;;
19207;SDS011;9737;59.466;18.036;2023-08-20T02:20:19;13.07;;;6.60;;
19207;SDS011;9737;59.466;18.036;2023-08-20T02:22:47;9.38;;;6.45;;
19207;SDS011;9737;59.466;18.036;2023-08-20T02:25:15;11.18;;;6.75;;
19207;SDS011;9737;59.466;18.036;2023-08-20T02:27:43;10.85;;;7.15;;
19207;SDS011;9737;59.466;18.036;2023-08-20T02:30:11;10.55;;;7.05;;
19207;SDS011;9737;59.466;18.036;2023-08-20T02:32:40;11.88;;;6.95;;
19207;SDS011;9737;59.466;18.036;2023-08-20T02:35:08;13.63;;;7.55;;
19207;SDS011;9737;59.466;18.036;2023-08-20T02:37:37;14.05;;;7.43;;
19207;SDS011;9737;59.466;18.036;2023-08-20T02:40:08;12.18;;;7.10;;
19207;SDS011;9737;59.466;18.036;2023-08-20T02:42:38;20.27;;;7.00;;
19207;SDS011;9737;59.466;18.036;2023-08-20T02:45:06;15.15;;;7.60;;
19207;SDS011;9737;59.466;18.036;2023-08-20T02:47:35;12.93;;;6.88;;
19207;SDS011;9737;59.466;18.036;2023-08-20T02:50:04;9.63;;;6.70;;
19207;SDS011;9737;59.466;18.036;2023-08-20T02:52:33;11.73;;;6.32;;
19207;SDS011;9737;59.466;18.036;2023-08-20T02:55:02;10.55;;;6.50;;
19207;SDS011;9737;59.466;18.036;2023-08-20T02:57:30;12.65;;;7.43;;
19207;SDS011;9737;59.466;18.036;2023-08-20T02:59:59;12.20;;;7.40;;
19207;SDS011;9737;59.466;18.036;2023-08-20T03:02:27;17.45;;;7.03;;
19207;SDS011;9737;59.466;18.036;2023-08-20T03:04:56;12.38;;;6.97;;
19207;SDS011;9737;59.466;18.036;2023-08-20T03:07:24;9.73;;;6.80;;
19207;SDS011;9737;59.466;18.036;2023-08-20T03:09:52;15.40;;;7.53;;
19207;SDS011;9737;59.466;18.036;2023-08-20T03:12:21;14.40;;;7.13;;
19207;SDS011;9737;59.466;18.036;2023-08-20T03:14:49;14.18;;;7.35;;
19207;SDS011;9737;59.466;18.036;2023-08-20T03:17:17;13.43;;;7.45;;
19207;SDS011;9737;59.466;18.036;2023-08-20T03:19:53;11.55;;;7.22;;
19207;SDS011;9737;59.466;18.036;2023-08-20T03:22:22;10.70;;;6.63;;
19207;SDS011;9737;59.466;18.036;2023-08-20T03:24:50;14.38;;;7.45;;
19207;SDS011;9737;59.466;18.036;2023-08-20T03:27:19;16.13;;;7.85;;
19207;SDS011;9737;59.466;18.036;2023-08-20T03:29:49;11.05;;;7.38;;
19207;SDS011;9737;59.466;18.036;2023-08-20T03:32:17;14.50;;;8.10;;
19207;SDS011;9737;59.466;18.036;2023-08-20T03:34:46;14.70;;;8.18;;
19207;SDS011;9737;59.466;18.036;2023-08-20T03:37:13;15.45;;;9.02;;
19207;SDS011;9737;59.466;18.036;2023-08-20T03:39:41;12.57;;;7.70;;
19207;SDS011;9737;59.466;18.036;2023-08-20T03:42:09;16.52;;;8.07;;
19207;SDS011;9737;59.466;18.036;2023-08-20T03:44:37;15.95;;;7.75;;
19207;SDS011;9737;59.466;18.036;2023-08-20T03:47:06;14.73;;;8.00;;
19207;SDS011;9737;59.466;18.036;2023-08-20T03:49:35;14.30;;;8.02;;
19207;SDS011;9737;59.466;18.036;2023-08-20T03:52:03;12.88;;;8.02;;
19207;SDS011;9737;59.466;18.036;2023-08-20T03:54:33;15.90;;;7.90;;
19207;SDS011;9737;59.466;18.036;2023-08-20T03:57:01;24.42;;;8.40;;
19207;SDS011;9737;59.466;18.036;2023-08-20T03:59:30;13.32;;;7.18;;
19207;SDS011;9737;59.466;18.036;2023-08-20T04:01:58;11.68;;;7.40;;
19207;SDS011;9737;59.466;18.036;2023-08-20T04:04:27;12.10;;;7.35;;
19207;SDS011;9737;59.466;18.036;2023-08-20T04:06:55;16.98;;;7.57;;
19207;SDS011;9737;59.466;18.036;2023-08-20T04:09:23;12.13;;;7.53;;
19207;SDS011;9737;59.466;18.036;2023-08-20T04:11:51;10.82;;;7.10;;
19207;SDS011;9737;59.466;18.036;2023-08-20T04:14:18;14.38;;;7.03;;
19207;SDS011;9737;59.466;18.036;2023-08-20T04:16:46;10.68;;;7.07;;
19207;SDS011;9737;59.466;18.036;2023-08-20T04:19:14;10.93;;;7.07;;
19207;SDS011;9737;59.466;18.036;2023-08-20T04:21:43;9.60;;;6.55;;
19207;SDS011;9737;59.466;18.036;2023-08-20T04:24:11;15.20;;;6.97;;
19207;SDS011;9737;59.466;18.036;2023-08-20T04:26:39;10.52;;;6.22;;
19207;SDS011;9737;59.466;18.036;2023-08-20T04:29:07;10.50;;;6.20;;
19207;SDS011;9737;59.466;18.036;2023-08-20T04:31:35;10.93;;;6.43;;
19207;SDS011;9737;59.466;18.036;2023-08-20T04:34:03;13.68;;;6.22;;
19207;SDS011;9737;59.466;18.036;2023-08-20T04:36:30;9.52;;;5.93;;
19207;SDS011;9737;59.466;18.036;2023-08-20T04:38:59;15.52;;;6.30;;
19207;SDS011;9737;59.466;18.036;2023-08-20T04:41:28;11.15;;;5.82;;
19207;SDS011;9737;59.466;18.036;2023-08-20T04:43:55;8.15;;;5.60;;
19207;SDS011;9737;59.466;18.036;2023-08-20T04:46:23;10.05;;;5.72;;
19207;SDS011;9737;59.466;18.036;2023-08-20T04:48:51;8.18;;;5.70;;
19207;SDS011;9737;59.466;18.036;2023-08-20T04:51:19;7.63;;;5.90;;
19207;SDS011;9737;59.466;18.036;2023-08-20T04:53:48;11.38;;;5.32;;
19207;SDS011;9737;59.466;18.036;2023-08-20T04:56:17;8.20;;;5.13;;
19207;SDS011;9737;59.466;18.036;2023-08-20T04:58:45;9.32;;;5.60;;
19207;SDS011;9737;59.466;18.036;2023-08-20T05:01:13;6.78;;;4.88;;
19207;SDS011;9737;59.466;18.036;2023-08-20T05:03:41;8.70;;;4.85;;
19207;SDS011;9737;59.466;18.036;2023-08-20T05:06:09;7.07;;;5.43;;
19207;SDS011;9737;59.466;18.036;2023-08-20T05:08:37;5.85;;;4.22;;
19207;SDS011;9737;59.466;18.036;2023-08-20T05:11:05;13.13;;;5.00;;
19207;SDS011;9737;59.466;18.036;2023-08-20T05:13:34;6.30;;;4.72;;
19207;SDS011;9737;59.466;18.036;2023-08-20T05:16:02;8.02;;;4.63;;
19207;SDS011;9737;59.466;18.036;2023-08-20T05:18:30;6.35;;;4.10;;
19207;SDS011;9737;59.466;18.036;2023-08-20T05:20:58;11.43;;;4.78;;
19207;SDS011;9737;59.466;18.036;2023-08-20T05:23:26;6.63;;;3.85;;
19207;SDS011;9737;59.466;18.036;2023-08-20T05:25:53;7.18;;;3.85;;
19207;SDS011;9737;59.466;18.036;2023-08-20T05:28:21;6.47;;;3.65;;
19207;SDS011;9737;59.466;18.036;2023-08-20T05:30:55;4.95;;;3.40;;
19207;SDS011;9737;59.466;18.036;2023-08-20T05:33:23;4.18;;;3.70;;
19207;SDS011;9737;59.466;18.036;2023-08-20T05:35:52;5.30;;;3.97;;
19207;SDS011;9737;59.466;18.036;2023-08-20T05:38:20;6.82;;;3.53;;
19207;SDS011;9737;59.466;18.036;2023-08-20T05:40:48;10.65;;;3.60;;
19207;SDS011;9737;59.466;18.036;2023-08-20T05:43:16;5.72;;;3.45;;
19207;SDS011;9737;59.466;18.036;2023-08-20T05:45:43;4.03;;;2.92;;
19207;SDS011;9737;59.466;18.036;2023-08-20T05:48:13;7.05;;;3.40;;
19207;SDS011;9737;59.466;18.036;2023-08-20T05:50:41;4.88;;;2.85;;
19207;SDS011;9737;59.466;18.036;2023-08-20T05:53:08;5.78;;;3.60;;
19207;SDS011;9737;59.466;18.036;2023-08-20T05:55:37;5.28;;;3.03;;
19207;SDS011;9737;59.466;18.036;2023-08-20T05:58:05;4.05;;;3.17;;
19207;SDS011;9737;59.466;18.036;2023-08-20T06:00:33;3.85;;;3.22;;
19207;SDS011;9737;59.466;18.036;2023-08-20T06:03:01;6.60;;;3.17;;
19207;SDS011;9737;59.466;18.036;2023-08-20T06:05:30;5.20;;;2.88;;
19207;SDS011;9737;59.466;18.036;2023-08-20T06:07:58;3.60;;;2.88;;
19207;SDS011;9737;59.466;18.036;2023-08-20T06:10:26;4.90;;;3.20;;
19207;SDS011;9737;59.466;18.036;2023-08-20T06:12:54;4.30;;;2.78;;
19207;SDS011;9737;59.466;18.036;2023-08-20T06:15:23;4.13;;;3.00;;
19207;SDS011;9737;59.466;18.036;2023-08-20T06:17:51;4.32;;;2.60;;
19207;SDS011;9737;59.466;18.036;2023-08-20T06:20:18;3.83;;;2.80;;
19207;SDS011;9737;59.466;18.036;2023-08-20T06:22:48;4.07;;;2.95;;
19207;SDS011;9737;59.466;18.036;2023-08-20T06:25:16;4.43;;;3.15;;
19207;SDS011;9737;59.466;18.036;2023-08-20T06:27:43;3.40;;;2.55;;
19207;SDS011;9737;59.466;18.036;2023-08-20T06:30:12;7.38;;;2.65;;
19207;SDS011;9737;59.466;18.036;2023-08-20T06:32:40;3.85;;;2.72;;
19207;SDS011;9737;59.466;18.036;2023-08-20T06:35:08;4.20;;;2.53;;
19207;SDS011;9737;59.466;18.036;2023-08-20T06:37:38;5.50;;;2.60;;
19207;SDS011;9737;59.466;18.036;2023-08-20T06:40:08;3.92;;;3.00;;
19207;SDS011;9737;59.466;18.036;2023-08-20T06:42:36;5.18;;;2.60;;
19207;SDS011;9737;59.466;18.036;2023-08-20T06:45:06;3.97;;;2.60;;
19207;SDS011;9737;59.466;18.036;2023-08-20T06:47:35;4.65;;;2.30;;
19207;SDS011;9737;59.466;18.036;2023-08-20T06:50:04;3.47;;;2.95;;
19207;SDS011;9737;59.466;18.036;2023-08-20T06:52:33;6.45;;;2.53;;
19207;SDS011;9737;59.466;18.036;2023-08-20T06:55:01;3.13;;;2.60;;
19207;SDS011;9737;59.466;18.036;2023-08-20T06:57:30;4.40;;;2.65;;
19207;SDS011;9737;59.466;18.036;2023-08-20T06:59:59;5.32;;;2.55;;
19207;SDS011;9737;59.466;18.036;2023-08-20T07:02:27;6.10;;;2.50;;
19207;SDS011;9737;59.466;18.036;2023-08-20T07:04:54;4.05;;;2.53;;
19207;SDS011;9737;59.466;18.036;2023-08-20T07:07:22;3.15;;;2.40;;
19207;SDS011;9737;59.466;18.036;2023-08-20T07:09:50;3.78;;;2.85;;
19207;SDS011;9737;59.466;18.036;2023-08-20T07:12:18;6.63;;;2.72;;
19207;SDS011;9737;59.466;18.036;2023-08-20T07:14:47;6.18;;;2.80;;
19207;SDS011;9737;59.466;18.036;2023-08-20T07:17:15;2.50;;;2.30;;
19207;SDS011;9737;59.466;18.036;2023-08-20T07:19:43;4.18;;;2.80;;
19207;SDS011;9737;59.466;18.036;2023-08-20T07:22:11;4.43;;;2.20;;
19207;SDS011;9737;59.466;18.036;2023-08-20T07:24:38;10.93;;;2.55;;
19207;SDS011;9737;59.466;18.036;2023-08-20T07:27:07;3.22;;;2.10;;
19207;SDS011;9737;59.466;18.036;2023-08-20T07:29:38;3.67;;;2.78;;
19207;SDS011;9737;59.466;18.036;2023-08-20T07:32:09;3.83;;;2.60;;
19207;SDS011;9737;59.466;18.036;2023-08-20T07:34:36;3.30;;;2.50;;
19207;SDS011;9737;59.466;18.036;2023-08-20T07:37:04;3.22;;;2.20;;
19207;SDS011;9737;59.466;18.036;2023-08-20T07:39:32;3.38;;;2.05;;
19207;SDS011;9737;59.466;18.036;2023-08-20T07:42:00;3.47;;;2.20;;
19207;SDS011;9737;59.466;18.036;2023-08-20T07:44:28;4.25;;;2.10;;
19207;SDS011;9737;59.466;18.036;2023-08-20T07:46:56;4.90;;;2.67;;
19207;SDS011;9737;59.466;18.036;2023-08-20T07:49:25;2.85;;;2.10;;
19207;SDS011;9737;59.466;18.036;2023-08-20T07:51:53;2.60;;;2.25;;
19207;SDS011;9737;59.466;18.036;2023-08-20T07:54:22;4.18;;;2.60;;
19207;SDS011;9737;59.466;18.036;2023-08-20T07:56:50;4.05;;;2.20;;
19207;SDS011;9737;59.466;18.036;2023-08-20T07:59:18;2.60;;;2.10;;
19207;SDS011;9737;59.466;18.036;2023-08-20T08:01:46;4.38;;;2.20;;
19207;SDS011;9737;59.466;18.036;2023-08-20T08:04:14;3.60;;;2.35;;
19207;SDS011;9737;59.466;18.036;2023-08-20T08:06:44;3.60;;;2.47;;
19207;SDS011;9737;59.466;18.036;2023-08-20T08:09:17;3.92;;;2.47;;
19207;SDS011;9737;59.466;18.036;2023-08-20T08:11:47;3.70;;;2.28;;
19207;SDS011;9737;59.466;18.036;2023-08-20T08:14:15;7.38;;;2.45;;
19207;SDS011;9737;59.466;18.036;2023-08-20T08:16:44;4.72;;;2.08;;
19207;SDS011;9737;59.466;18.036;2023-08-20T08:19:13;3.45;;;2.25;;
19207;SDS011;9737;59.466;18.036;2023-08-20T08:21:41;3.20;;;2.20;;
19207;SDS011;9737;59.466;18.036;2023-08-20T08:24:11;3.38;;;2.20;;
19207;SDS011;9737;59.466;18.036;2023-08-20T08:26:39;3.70;;;2.40;;
19207;SDS011;9737;59.466;18.036;2023-08-20T08:29:08;4.40;;;2.40;;
19207;SDS011;9737;59.466;18.036;2023-08-20T08:31:36;3.28;;;2.30;;
19207;SDS011;9737;59.466;18.036;2023-08-20T08:34:04;4.07;;;2.35;;
19207;SDS011;9737;59.466;18.036;2023-08-20T08:36:32;4.32;;;2.40;;
19207;SDS011;9737;59.466;18.036;2023-08-20T08:39:00;3.78;;;2.50;;
19207;SDS011;9737;59.466;18.036;2023-08-20T08:41:30;2.90;;;2.10;;
19207;SDS011;9737;59.466;18.036;2023-08-20T08:44:00;2.75;;;2.20;;
19207;SDS011;9737;59.466;18.036;2023-08-20T08:46:29;5.18;;;2.50;;
19207;SDS011;9737;59.466;18.036;2023-08-20T08:48:58;5.07;;;2.70;;
19207;SDS011;9737;59.466;18.036;2023-08-20T08:51:27;5.95;;;2.40;;
19207;SDS011;9737;59.466;18.036;2023-08-20T08:53:56;6.10;;;2.70;;
19207;SDS011;9737;59.466;18.036;2023-08-20T08:56:24;3.30;;;2.72;;
19207;SDS011;9737;59.466;18.036;2023-08-20T08:58:53;3.65;;;2.40;;
19207;SDS011;9737;59.466;18.036;2023-08-20T09:01:21;5.13;;;2.40;;
19207;SDS011;9737;59.466;18.036;2023-08-20T09:03:49;4.53;;;2.30;;
19207;SDS011;9737;59.466;18.036;2023-08-20T09:06:17;3.22;;;2.38;;
19207;SDS011;9737;59.466;18.036;2023-08-20T09:08:45;4.47;;;2.33;;
19207;SDS011;9737;59.466;18.036;2023-08-20T09:11:12;5.47;;;2.60;;
19207;SDS011;9737;59.466;18.036;2023-08-20T09:13:41;5.38;;;3.30;;
19207;SDS011;9737;59.466;18.036;2023-08-20T09:16:11;5.13;;;2.88;;
19207;SDS011;9737;59.466;18.036;2023-08-20T09:18:39;4.50;;;2.45;;
19207;SDS011;9737;59.466;18.036;2023-08-20T09:21:08;3.78;;;2.50;;
19207;SDS011;9737;59.466;18.036;2023-08-20T09:23:36;5.93;;;2.70;;
19207;SDS011;9737;59.466;18.036;2023-08-20T09:26:05;7.70;;;2.80;;
19207;SDS011;9737;59.466;18.036;2023-08-20T09:28:40;6.35;;;3.05;;
19207;SDS011;9737;59.466;18.036;2023-08-20T09:31:08;7.07;;;3.13;;
19207;SDS011;9737;59.466;18.036;2023-08-20T09:33:39;4.20;;;2.83;;
19207;SDS011;9737;59.466;18.036;2023-08-20T09:36:16;3.83;;;2.70;;
19207;SDS011;9737;59.466;18.036;2023-08-20T09:38:44;3.90;;;3.30;;
19207;SDS011;9737;59.466;18.036;2023-08-20T09:41:15;4.20;;;3.05;;
19207;SDS011;9737;59.466;18.036;2023-08-20T09:43:44;4.85;;;3.17;;
19207;SDS011;9737;59.466;18.036;2023-08-20T09:46:15;7.88;;;3.47;;
19207;SDS011;9737;59.466;18.036;2023-08-20T09:48:48;3.80;;;3.00;;
19207;SDS011;9737;59.466;18.036;2023-08-20T09:51:19;7.15;;;3.10;;
19207;SDS011;9737;59.466;18.036;2023-08-20T09:53:53;4.50;;;3.70;;
19207;SDS011;9737;59.466;18.036;2023-08-20T09:56:28;4.28;;;3.22;;
19207;SDS011;9737;59.466;18.036;2023-08-20T09:58:58;3.78;;;3.10;;
19207;SDS011;9737;59.466;18.036;2023-08-20T10:01:27;4.50;;;3.10;;
19207;SDS011;9737;59.466;18.036;2023-08-20T10:03:56;5.03;;;3.40;;
19207;SDS011;9737;59.466;18.036;2023-08-20T10:06:24;5.55;;;3.25;;
19207;SDS011;9737;59.466;18.036;2023-08-20T10:08:53;5.43;;;3.35;;
19207;SDS011;9737;59.466;18.036;2023-08-20T10:11:21;4.30;;;3.20;;
19207;SDS011;9737;59.466;18.036;2023-08-20T10:13:49;4.75;;;3.08;;
19207;SDS011;9737;59.466;18.036;2023-08-20T10:16:17;4.15;;;2.88;;
19207;SDS011;9737;59.466;18.036;2023-08-20T10:18:48;5.88;;;2.83;;
19207;SDS011;9737;59.466;18.036;2023-08-20T10:21:17;3.80;;;2.53;;
19207;SDS011;9737;59.466;18.036;2023-08-20T10:23:48;6.60;;;2.90;;
19207;SDS011;9737;59.466;18.036;2023-08-20T10:26:16;3.80;;;2.80;;
19207;SDS011;9737;59.466;18.036;2023-08-20T10:28:45;3.35;;;2.70;;
19207;SDS011;9737;59.466;18.036;2023-08-20T10:31:13;2.78;;;2.47;;
19207;SDS011;9737;59.466;18.036;2023-08-20T10:33:48;5.43;;;2.80;;
19207;SDS011;9737;59.466;18.036;2023-08-20T10:36:20;3.67;;;2.55;;
19207;SDS011;9737;59.466;18.036;2023-08-20T10:38:52;3.92;;;2.40;;
19207;SDS011;9737;59.466;18.036;2023-08-20T10:41:24;3.60;;;2.50;;
19207;SDS011;9737;59.466;18.036;2023-08-20T10:43:52;3.88;;;2.33;;
19207;SDS011;9737;59.466;18.036;2023-08-20T10:46:20;3.58;;;2.40;;
19207;SDS011;9737;59.466;18.036;2023-08-20T10:48:50;4.90;;;2.55;;
19207;SDS011;9737;59.466;18.036;2023-08-20T10:51:25;3.88;;;2.50;;
19207;SDS011;9737;59.466;18.036;2023-08-20T10:54:04;4.40;;;2.95;;
19207;SDS011;9737;59.466;18.036;2023-08-20T10:56:40;6.43;;;2.70;;
19207;SDS011;9737;59.466;18.036;2023-08-20T10:59:10;3.60;;;2.47;;
19207;SDS011;9737;59.466;18.036;2023-08-20T11:01:43;4.03;;;2.58;;
19207;SDS011;9737;59.466;18.036;2023-08-20T11:04:12;4.57;;;2.72;;
19207;SDS011;9737;59.466;18.036;2023-08-20T11:06:44;4.57;;;2.67;;
19207;SDS011;9737;59.466;18.036;2023-08-20T11:09:12;6.93;;;2.85;;
19207;SDS011;9737;59.466;18.036;2023-08-20T11:11:41;5.22;;;2.90;;
19207;SDS011;9737;59.466;18.036;2023-08-20T11:14:11;4.25;;;2.78;;
19207;SDS011;9737;59.466;18.036;2023-08-20T11:16:41;5.18;;;3.00;;
19207;SDS011;9737;59.466;18.036;2023-08-20T11:19:10;3.20;;;2.50;;
19207;SDS011;9737;59.466;18.036;2023-08-20T11:21:39;5.38;;;2.67;;
19207;SDS011;9737;59.466;18.036;2023-08-20T11:24:09;8.73;;;3.05;;
19207;SDS011;9737;59.466;18.036;2023-08-20T11:26:39;4.43;;;2.70;;
19207;SDS011;9737;59.466;18.036;2023-08-20T11:29:08;4.07;;;2.67;;
19207;SDS011;9737;59.466;18.036;2023-08-20T11:31:36;2.53;;;2.33;;
19207;SDS011;9737;59.466;18.036;2023-08-20T11:34:05;4.28;;;2.50;;
19207;SDS011;9737;59.466;18.036;2023-08-20T11:36:34;4.97;;;2.90;;
19207;SDS011;9737;59.466;18.036;2023-08-20T11:39:03;3.08;;;2.50;;
19207;SDS011;9737;59.466;18.036;2023-08-20T11:41:35;3.80;;;2.83;;
19207;SDS011;9737;59.466;18.036;2023-08-20T11:44:04;4.30;;;2.92;;
19207;SDS011;9737;59.466;18.036;2023-08-20T11:46:32;5.28;;;3.22;;
19207;SDS011;9737;59.466;18.036;2023-08-20T11:49:01;5.88;;;2.80;;
19207;SDS011;9737;59.466;18.036;2023-08-20T11:51:34;5.90;;;2.85;;
19207;SDS011;9737;59.466;18.036;2023-08-20T11:54:04;5.78;;;3.08;;
19207;SDS011;9737;59.466;18.036;2023-08-20T11:56:34;5.57;;;3.08;;
19207;SDS011;9737;59.466;18.036;2023-08-20T11:59:02;5.10;;;3.10;;
19207;SDS011;9737;59.466;18.036;2023-08-20T12:01:30;4.07;;;2.97;;
19207;SDS011;9737;59.466;18.036;2023-08-20T12:04:02;6.22;;;2.90;;
19207;SDS011;9737;59.466;18.036;2023-08-20T12:06:31;4.13;;;3.13;;
19207;SDS011;9737;59.466;18.036;2023-08-20T12:09:01;4.63;;;3.40;;
19207;SDS011;9737;59.466;18.036;2023-08-20T12:11:30;5.70;;;3.28;;
19207;SDS011;9737;59.466;18.036;2023-08-20T12:14:01;3.72;;;2.90;;
19207;SDS011;9737;59.466;18.036;2023-08-20T12:16:29;4.50;;;3.17;;
19207;SDS011;9737;59.466;18.036;2023-08-20T12:18:57;4.70;;;3.20;;
19207;SDS011;9737;59.466;18.036;2023-08-20T12:21:24;5.72;;;2.92;;
19207;SDS011;9737;59.466;18.036;2023-08-20T12:23:52;5.38;;;3.30;;
19207;SDS011;9737;59.466;18.036;2023-08-20T12:26:20;3.47;;;3.00;;
19207;SDS011;9737;59.466;18.036;2023-08-20T12:28:48;6.88;;;3.38;;
19207;SDS011;9737;59.466;18.036;2023-08-20T12:31:17;4.63;;;3.13;;
19207;SDS011;9737;59.466;18.036;2023-08-20T12:33:45;4.95;;;2.90;;
19207;SDS011;9737;59.466;18.036;2023-08-20T12:36:13;5.22;;;3.05;;
19207;SDS011;9737;59.466;18.036;2023-08-20T12:38:41;5.20;;;3.08;;
19207;SDS011;9737;59.466;18.036;2023-08-20T12:41:08;6.00;;;3.03;;
19207;SDS011;9737;59.466;18.036;2023-08-20T12:43:36;4.60;;;3.45;;
19207;SDS011;9737;59.466;18.036;2023-08-20T12:46:04;4.97;;;3.30;;
19207;SDS011;9737;59.466;18.036;2023-08-20T12:48:33;7.13;;;3.55;;
19207;SDS011;9737;59.466;18.036;2023-08-20T12:51:01;5.45;;;3.35;;
19207;SDS011;9737;59.466;18.036;2023-08-20T12:53:30;8.00;;;3.33;;
19207;SDS011;9737;59.466;18.036;2023-08-20T12:55:58;5.47;;;3.45;;
19207;SDS011;9737;59.466;18.036;2023-08-20T12:58:26;6.38;;;3.33;;
19207;SDS011;9737;59.466;18.036;2023-08-20T13:00:53;5.03;;;3.75;;
19207;SDS011;9737;59.466;18.036;2023-08-20T13:03:22;4.75;;;3.45;;
19207;SDS011;9737;59.466;18.036;2023-08-20T13:05:52;6.60;;;3.75;;
19207;SDS011;9737;59.466;18.036;2023-08-20T13:08:20;12.07;;;4.38;;
19207;SDS011;9737;59.466;18.036;2023-08-20T13:10:50;4.93;;;3.65;;
19207;SDS011;9737;59.466;18.036;2023-08-20T13:13:23;4.93;;;4.00;;
19207;SDS011;9737;59.466;18.036;2023-08-20T13:15:52;7.07;;;4.20;;
19207;SDS011;9737;59.466;18.036;2023-08-20T13:18:21;5.20;;;3.70;;
19207;SDS011;9737;59.466;18.036;2023-08-20T13:20:53;6.40;;;3.95;;
19207;SDS011;9737;59.466;18.036;2023-08-20T13:23:21;24.98;;;7.95;;
19207;SDS011;9737;59.466;18.036;2023-08-20T13:25:50;6.05;;;4.15;;
19207;SDS011;9737;59.466;18.036;2023-08-20T13:28:18;7.53;;;3.80;;
19207;SDS011;9737;59.466;18.036;2023-08-20T13:30:47;6.75;;;4.13;;
19207;SDS011;9737;59.466;18.036;2023-08-20T13:33:15;5.65;;;3.70;;
19207;SDS011;9737;59.466;18.036;2023-08-20T13:35:43;6.15;;;3.70;;
19207;SDS011;9737;59.466;18.036;2023-08-20T13:38:12;6.38;;;3.90;;
19207;SDS011;9737;59.466;18.036;2023-08-20T13:40:40;7.53;;;3.97;;
19207;SDS011;9737;59.466;18.036;2023-08-20T13:43:08;4.75;;;3.55;;
19207;SDS011;9737;59.466;18.036;2023-08-20T13:45:36;6.60;;;3.70;;
19207;SDS011;9737;59.466;18.036;2023-08-20T13:48:04;8.32;;;3.75;;
19207;SDS011;9737;59.466;18.036;2023-08-20T13:50:34;6.18;;;3.70;;
19207;SDS011;9737;59.466;18.036;2023-08-20T13:53:02;6.68;;;3.45;;
19207;SDS011;9737;59.466;18.036;2023-08-20T13:55:31;6.80;;;4.18;;
19207;SDS011;9737;59.466;18.036;2023-08-20T13:57:59;4.95;;;3.90;;
19207;SDS011;9737;59.466;18.036;2023-08-20T14:00:27;7.15;;;4.13;;
19207;SDS011;9737;59.466;18.036;2023-08-20T14:02:55;11.30;;;4.10;;
19207;SDS011;9737;59.466;18.036;2023-08-20T14:05:23;6.00;;;4.10;;
19207;SDS011;9737;59.466;18.036;2023-08-20T14:07:51;6.30;;;4.35;;
19207;SDS011;9737;59.466;18.036;2023-08-20T14:10:20;9.02;;;4.10;;
19207;SDS011;9737;59.466;18.036;2023-08-20T14:12:49;5.10;;;3.95;;
19207;SDS011;9737;59.466;18.036;2023-08-20T14:15:17;8.45;;;4.10;;
19207;SDS011;9737;59.466;18.036;2023-08-20T14:17:45;6.20;;;4.50;;
19207;SDS011;9737;59.466;18.036;2023-08-20T14:20:13;8.88;;;4.35;;
19207;SDS011;9737;59.466;18.036;2023-08-20T14:22:41;8.07;;;4.57;;
19207;SDS011;9737;59.466;18.036;2023-08-20T14:25:09;6.60;;;4.40;;
19207;SDS011;9737;59.466;18.036;2023-08-20T14:27:37;7.15;;;4.32;;
19207;SDS011;9737;59.466;18.036;2023-08-20T14:30:07;7.82;;;5.10;;
19207;SDS011;9737;59.466;18.036;2023-08-20T14:32:37;7.15;;;4.43;;
19207;SDS011;9737;59.466;18.036;2023-08-20T14:35:07;8.57;;;4.55;;
19207;SDS011;9737;59.466;18.036;2023-08-20T14:37:35;7.88;;;4.65;;
19207;SDS011;9737;59.466;18.036;2023-08-20T14:40:04;8.90;;;4.97;;
19207;SDS011;9737;59.466;18.036;2023-08-20T14:42:33;9.82;;;5.70;;
19207;SDS011;9737;59.466;18.036;2023-08-20T14:45:01;8.63;;;4.40;;
19207;SDS011;9737;59.466;18.036;2023-08-20T14:47:31;7.20;;;4.70;;
19207;SDS011;9737;59.466;18.036;2023-08-20T14:49:59;10.13;;;5.20;;
19207;SDS011;9737;59.466;18.036;2023-08-20T14:52:27;10.82;;;5.25;;
19207;SDS011;9737;59.466;18.036;2023-08-20T14:54:55;7.72;;;4.57;;